Time;durP1;ratioP1;P1;durP2;ratioP2;P2;SDS_P1;SDS_P2;PMS_P1;PMS_P2;Temp;Humidity;BMP_temperature;BMP_pressure;BME280_temperature;BME280_humidity;BME280_pressure;Samples;Min_cycle;Max_cycle;Signal;HPM_P1;HPM_P2
2023/09/06 00:00:56;;;;;;;3.33;1.47;;;15.50;99.90;;;;;;5015722;28;20494;-69
2023/09/06 00:03:23;;;;;;;1.20;1.20;;;15.40;99.90;;;;;;5016409;28;20405;-69
2023/09/06 00:05:48;;;;;;;2.30;0.87;;;15.30;99.90;;;;;;5016317;28;20695;-69
2023/09/06 00:08:16;;;;;;;20.23;1.60;;;15.30;99.90;;;;;;5016216;28;20498;-71
2023/09/06 00:10:43;;;;;;;1.23;1.13;;;15.30;99.90;;;;;;5016318;28;20600;-71
2023/09/06 00:13:10;;;;;;;2.20;1.50;;;15.40;99.90;;;;;;5016020;28;20414;-70
2023/09/06 00:15:36;;;;;;;5.50;1.87;;;15.20;99.90;;;;;;5016083;28;20552;-70
2023/09/06 00:18:07;;;;;;;3.33;1.77;;;15.10;99.90;;;;;;5016266;28;20433;-71
2023/09/06 00:20:39;;;;;;;1.33;1.20;;;15.10;99.90;;;;;;5016237;28;20878;-69
2023/09/06 00:23:08;;;;;;;1.37;1.27;;;15.10;99.90;;;;;;5015899;28;20474;-69
2023/09/06 00:25:35;;;;;;;0.93;0.93;;;15.20;99.90;;;;;;5016071;28;20921;-70
2023/09/06 00:28:06;;;;;;;1.80;0.97;;;15.10;99.90;;;;;;5015782;28;20880;-70
2023/09/06 00:30:33;;;;;;;0.80;0.60;;;15.10;99.90;;;;;;5016083;28;20410;-71
2023/09/06 00:32:59;;;;;;;0.97;0.97;;;15.10;99.90;;;;;;5015670;28;20918;-68
2023/09/06 00:35:26;;;;;;;0.80;0.60;;;15.10;99.90;;;;;;5015567;28;20469;-70
2023/09/06 00:37:53;;;;;;;1.00;1.00;;;15.10;99.90;;;;;;5015821;28;20485;-71
2023/09/06 00:40:21;;;;;;;2.40;1.70;;;15.10;99.90;;;;;;5015609;28;20414;-69
2023/09/06 00:42:48;;;;;;;2.10;1.20;;;15.00;99.90;;;;;;5015871;28;20904;-69
2023/09/06 00:45:15;;;;;;;2.10;1.93;;;15.00;99.90;;;;;;5015307;28;20427;-71
2023/09/06 00:47:42;;;;;;;1.93;1.03;;;15.00;99.90;;;;;;5015722;28;20422;-69
2023/09/06 00:50:10;;;;;;;3.27;2.23;;;14.80;99.90;;;;;;5015459;28;20409;-68
2023/09/06 00:52:37;;;;;;;1.23;1.13;;;14.70;99.90;;;;;;5015348;28;20804;-71
2023/09/06 00:55:04;;;;;;;0.90;0.90;;;14.70;99.90;;;;;;5015073;28;20461;-71
2023/09/06 00:57:30;;;;;;;0.90;0.90;;;14.60;99.90;;;;;;5030718;28;20960;-70
2023/09/06 00:59:58;;;;;;;2.00;1.20;;;14.60;99.90;;;;;;5015434;28;20403;-69
2023/09/06 01:02:25;;;;;;;1.30;1.30;;;14.60;99.90;;;;;;5015179;28;20411;-70
2023/09/06 01:04:50;;;;;;;1.23;1.23;;;14.70;99.90;;;;;;5014885;28;20440;-69
2023/09/06 01:07:17;;;;;;;1.03;1.03;;;14.60;99.90;;;;;;5015118;28;20776;-70
2023/09/06 01:09:43;;;;;;;1.67;1.57;;;14.60;99.90;;;;;;5030728;28;20190;-68
2023/09/06 01:12:12;;;;;;;1.47;1.37;;;14.60;99.90;;;;;;5014924;28;20465;-69
2023/09/06 01:14:40;;;;;;;0.50;0.50;;;14.40;99.90;;;;;;5014763;28;20473;-69
2023/09/06 01:17:07;;;;;;;0.50;0.50;;;14.30;99.90;;;;;;5015336;28;20958;-70
2023/09/06 01:19:35;;;;;;;1.60;1.50;;;14.30;99.90;;;;;;5014990;28;20429;-71
2023/09/06 01:22:08;;;;;;;1.43;1.33;;;14.30;99.90;;;;;;5015066;28;20414;-69
2023/09/06 01:24:34;;;;;;;3.73;1.93;;;14.20;99.90;;;;;;5014443;28;20462;-69
2023/09/06 01:27:01;;;;;;;1.00;0.83;;;14.20;99.90;;;;;;5014807;28;20489;-71
2023/09/06 01:29:29;;;;;;;1.33;1.23;;;14.30;99.90;;;;;;5014514;28;20891;-71
2023/09/06 01:31:54;;;;;;;1.33;1.10;;;14.30;99.90;;;;;;5014962;28;20438;-69
2023/09/06 01:34:20;;;;;;;0.83;0.83;;;14.30;99.90;;;;;;5014363;28;20552;-71
2023/09/06 01:36:46;;;;;;;2.00;0.90;;;14.20;99.90;;;;;;5014744;28;20167;-71
2023/09/06 01:39:11;;;;;;;2.20;1.37;;;14.20;99.90;;;;;;5014540;28;20624;-69
2023/09/06 01:41:37;;;;;;;0.93;0.77;;;14.10;99.90;;;;;;5014494;28;20179;-71
2023/09/06 01:44:03;;;;;;;0.50;0.50;;;14.00;99.90;;;;;;5014288;28;20249;-70
2023/09/06 01:46:28;;;;;;;0.97;0.87;;;14.00;99.90;;;;;;5014461;28;20245;-71
2023/09/06 01:48:54;;;;;;;0.70;0.70;;;14.10;99.90;;;;;;5014466;28;20531;-71
2023/09/06 01:51:19;;;;;;;1.47;1.23;;;14.10;99.90;;;;;;5014385;28;20614;-69
2023/09/06 01:53:45;;;;;;;1.30;1.00;;;14.00;99.90;;;;;;5013550;28;20205;-69
2023/09/06 01:56:11;;;;;;;0.90;0.63;;;14.00;99.90;;;;;;5014209;28;20258;-69
2023/09/06 01:58:37;;;;;;;1.03;0.93;;;14.10;99.90;;;;;;5014064;28;20278;-71
2023/09/06 02:01:04;;;;;;;0.80;0.80;;;14.00;99.90;;;;;;5014209;28;20175;-71
2023/09/06 02:03:33;;;;;;;1.07;0.70;;;14.00;99.90;;;;;;5013961;28;20467;-71
2023/09/06 02:06:03;;;;;;;0.73;0.60;;;14.00;99.90;;;;;;5014152;28;20924;-71
2023/09/06 02:08:28;;;;;;;1.93;0.60;;;13.90;99.90;;;;;;5014106;28;20413;-69
2023/09/06 02:10:54;;;;;;;0.60;0.60;;;14.00;99.90;;;;;;5013577;28;20425;-69
2023/09/06 02:13:20;;;;;;;1.00;1.00;;;13.90;99.90;;;;;;5013785;28;20178;-70
2023/09/06 02:15:45;;;;;;;0.40;0.40;;;13.90;99.90;;;;;;5014118;28;20198;-70
2023/09/06 02:18:15;;;;;;;1.37;1.27;;;13.80;99.90;;;;;;5013913;28;20269;-69
2023/09/06 02:20:41;;;;;;;0.73;0.73;;;13.80;99.90;;;;;;5014132;28;20167;-70
2023/09/06 02:23:07;;;;;;;2.30;1.07;;;13.80;99.90;;;;;;5013680;28;20413;-70
2023/09/06 02:25:33;;;;;;;0.50;0.50;;;13.80;99.90;;;;;;5013689;28;20795;-69
2023/09/06 02:28:04;;;;;;;0.80;0.80;;;13.70;99.90;;;;;;5013820;28;20421;-68
2023/09/06 02:30:30;;;;;;;1.70;1.60;;;13.70;99.90;;;;;;5013771;28;20881;-70
2023/09/06 02:32:56;;;;;;;0.60;0.50;;;13.80;99.90;;;;;;5013635;28;20422;-68
2023/09/06 02:35:21;;;;;;;1.73;1.20;;;13.70;99.90;;;;;;5013604;28;20516;-69
2023/09/06 02:37:47;;;;;;;0.77;0.77;;;13.70;99.90;;;;;;5013409;28;20171;-70
2023/09/06 02:40:14;;;;;;;1.13;0.77;;;13.60;99.90;;;;;;5013601;28;20175;-69
2023/09/06 02:42:40;;;;;;;1.10;0.90;;;13.60;99.90;;;;;;5013848;28;20714;-70
2023/09/06 02:45:09;;;;;;;1.67;1.60;;;13.60;99.90;;;;;;5013382;28;20448;-69
2023/09/06 02:47:47;;;;;;;1.77;1.03;;;13.50;99.90;;;;;;5013569;28;20823;-70
2023/09/06 02:50:22;;;;;;;0.63;0.63;;;13.60;99.90;;;;;;5013794;28;20413;-70
2023/09/06 02:52:50;;;;;;;0.63;0.63;;;13.60;99.90;;;;;;5013947;28;20395;-70
2023/09/06 02:55:17;;;;;;;0.67;0.67;;;13.60;99.90;;;;;;5012213;28;20461;-70
2023/09/06 02:57:43;;;;;;;1.00;0.60;;;13.60;99.90;;;;;;5013367;28;20750;-69
2023/09/06 03:00:19;;;;;;;0.77;0.77;;;13.50;99.90;;;;;;5013621;28;20417;-69
2023/09/06 03:02:47;;;;;;;0.80;0.80;;;13.50;99.90;;;;;;5013467;28;20886;-70
2023/09/06 03:05:17;;;;;;;0.80;0.80;;;13.40;99.90;;;;;;5017177;28;20429;-70
2023/09/06 03:07:45;;;;;;;1.13;1.03;;;13.30;99.90;;;;;;5032592;28;20430;-68
2023/09/06 03:10:11;;;;;;;0.87;0.77;;;13.40;99.90;;;;;;5017510;28;20745;-71
2023/09/06 03:12:41;;;;;;;1.00;0.73;;;13.30;99.90;;;;;;5017393;28;20424;-68
2023/09/06 03:15:08;;;;;;;0.67;0.67;;;13.10;99.90;;;;;;5016377;28;20609;-70
2023/09/06 03:17:36;;;;;;;0.50;0.50;;;13.10;99.90;;;;;;5017234;28;20544;-71
2023/09/06 03:20:18;;;;;;;0.73;0.40;;;13.10;99.90;;;;;;5017217;28;20421;-69
2023/09/06 03:22:47;;;;;;;0.50;0.50;;;13.20;99.90;;;;;;5017307;28;20426;-69
2023/09/06 03:25:17;;;;;;;0.40;0.40;;;13.20;99.90;;;;;;5016766;28;20656;-71
2023/09/06 03:27:42;;;;;;;0.40;0.40;;;13.20;99.90;;;;;;5017112;28;20463;-70
2023/09/06 03:30:09;;;;;;;0.60;0.40;;;13.20;99.90;;;;;;5017003;28;20413;-70
2023/09/06 03:32:35;;;;;;;0.70;0.70;;;13.10;99.90;;;;;;5017105;28;20175;-70
2023/09/06 03:35:04;;;;;;;0.93;0.57;;;13.10;99.90;;;;;;5016524;28;20824;-71
2023/09/06 03:37:30;;;;;;;0.70;0.70;;;13.10;99.90;;;;;;5017020;28;20430;-70
2023/09/06 03:39:56;;;;;;;0.50;0.50;;;13.10;99.90;;;;;;5017051;28;20431;-71
2023/09/06 03:42:23;;;;;;;0.40;0.40;;;13.10;99.90;;;;;;5016887;28;20901;-69
2023/09/06 03:44:49;;;;;;;0.40;0.40;;;13.10;99.90;;;;;;5016469;28;20910;-69
2023/09/06 03:47:16;;;;;;;0.50;0.50;;;13.00;99.90;;;;;;5016856;28;20409;-69
2023/09/06 03:49:43;;;;;;;0.60;0.60;;;12.90;99.90;;;;;;5016823;28;20896;-69
2023/09/06 03:52:16;;;;;;;0.40;0.40;;;13.00;99.90;;;;;;5016601;28;20424;-68
2023/09/06 03:54:42;;;;;;;0.60;0.60;;;12.90;99.90;;;;;;5016322;28;20468;-70
2023/09/06 03:57:07;;;;;;;0.50;0.50;;;12.90;99.90;;;;;;5016486;28;20765;-70
2023/09/06 03:59:35;;;;;;;0.40;0.40;;;12.90;99.90;;;;;;5016616;28;20212;-70
2023/09/06 04:02:07;;;;;;;0.50;0.40;;;12.90;99.60;;;;;;5016622;28;20194;-70
2023/09/06 04:04:34;;;;;;;0.50;0.50;;;13.00;99.20;;;;;;5016325;28;20866;-71
2023/09/06 04:07:00;;;;;;;0.67;0.67;;;12.90;99.30;;;;;;5016419;28;20475;-68
2023/09/06 04:09:30;;;;;;;0.40;0.40;;;12.80;99.70;;;;;;5016337;28;20424;-70
2023/09/06 04:11:59;;;;;;;1.17;0.50;;;12.90;99.80;;;;;;5016254;28;20406;-69
2023/09/06 04:14:24;;;;;;;0.50;0.50;;;12.90;99.70;;;;;;5015943;28;20931;-68
2023/09/06 04:16:50;;;;;;;0.40;0.40;;;12.90;99.60;;;;;;5015788;28;20447;-71
2023/09/06 04:19:16;;;;;;;0.60;0.60;;;12.90;99.40;;;;;;5016217;28;20476;-68
2023/09/06 04:21:43;;;;;;;0.40;0.40;;;12.80;99.20;;;;;;5016194;28;20171;-71
2023/09/06 04:24:09;;;;;;;0.70;0.43;;;12.80;99.30;;;;;;5015781;28;20201;-68
2023/09/06 04:26:35;;;;;;;4.83;0.50;;;12.90;99.10;;;;;;5015890;28;20806;-69
2023/09/06 04:29:02;;;;;;;1.90;1.47;;;12.90;99.10;;;;;;5015919;28;20421;-69
2023/09/06 04:31:28;;;;;;;0.33;0.33;;;13.00;99.00;;;;;;5015768;28;20193;-68
2023/09/06 04:33:54;;;;;;;1.90;0.60;;;13.10;98.60;;;;;;5015736;28;20434;-71
2023/09/06 04:36:19;;;;;;;2.33;1.00;;;13.20;98.70;;;;;;5015906;28;20398;-69
2023/09/06 04:38:46;;;;;;;1.57;1.47;;;13.20;99.00;;;;;;5015900;28;20221;-70
2023/09/06 04:41:12;;;;;;;0.70;0.60;;;13.20;99.20;;;;;;5015893;28;20259;-71
2023/09/06 04:43:38;;;;;;;1.47;0.87;;;13.00;99.30;;;;;;5015647;28;20465;-70
2023/09/06 04:46:04;;;;;;;0.97;0.97;;;12.90;99.60;;;;;;5015647;28;20410;-70
2023/09/06 04:48:29;;;;;;;0.40;0.40;;;12.90;99.80;;;;;;5015648;28;20178;-70
2023/09/06 04:50:56;;;;;;;3.70;1.07;;;12.90;99.70;;;;;;5015603;28;20176;-68
2023/09/06 04:53:22;;;;;;;0.80;0.50;;;12.90;99.80;;;;;;5015250;28;20182;-69
2023/09/06 04:55:49;;;;;;;0.40;0.40;;;12.90;99.60;;;;;;5015371;28;20457;-71
2023/09/06 04:58:14;;;;;;;0.50;0.50;;;12.90;99.50;;;;;;5015553;28;20170;-70
2023/09/06 05:00:43;;;;;;;1.73;0.50;;;12.90;99.30;;;;;;5015328;28;20413;-69
2023/09/06 05:03:12;;;;;;;0.40;0.40;;;12.90;99.50;;;;;;5015009;28;20186;-70
2023/09/06 05:05:40;;;;;;;3.33;0.77;;;12.90;99.60;;;;;;5015412;28;20440;-69
2023/09/06 05:08:06;;;;;;;0.40;0.40;;;12.90;99.30;;;;;;5015170;28;20414;-70
2023/09/06 05:10:32;;;;;;;0.60;0.60;;;13.10;98.90;;;;;;5015071;28;20821;-68
2023/09/06 05:12:59;;;;;;;0.97;0.70;;;13.10;98.80;;;;;;5015097;28;20516;-70
2023/09/06 05:15:24;;;;;;;1.00;0.67;;;13.10;99.00;;;;;;5014913;28;20468;-71
2023/09/06 05:17:50;;;;;;;0.47;0.47;;;13.00;99.30;;;;;;5015036;28;20815;-70
2023/09/06 05:20:32;;;;;;;0.40;0.40;;;13.00;99.20;;;;;;5015220;28;20210;-71
2023/09/06 05:23:02;;;;;;;0.70;0.70;;;13.00;99.20;;;;;;5014918;28;20172;-70
2023/09/06 05:25:29;;;;;;;0.40;0.40;;;13.00;99.30;;;;;;5014718;28;20978;-69
2023/09/06 05:28:00;;;;;;;0.50;0.50;;;13.00;99.40;;;;;;5014109;28;20493;-71
2023/09/06 05:30:26;;;;;;;0.50;0.50;;;13.00;99.60;;;;;;5014870;28;20409;-71
2023/09/06 05:32:54;;;;;;;1.37;0.87;;;13.10;99.70;;;;;;5014912;28;20498;-69
2023/09/06 05:35:20;;;;;;;0.97;0.40;;;13.00;99.80;;;;;;5014409;28;20505;-71
2023/09/06 05:37:45;;;;;;;0.40;0.40;;;13.00;99.70;;;;;;5014801;28;20449;-69
2023/09/06 05:40:12;;;;;;;0.50;0.50;;;13.10;99.30;;;;;;5014655;28;20182;-70
2023/09/06 05:42:41;;;;;;;0.40;0.40;;;13.30;99.20;;;;;;5014830;28;20611;-70
2023/09/06 05:45:11;;;;;;;0.60;0.53;;;13.50;99.50;;;;;;5014450;28;20456;-70
2023/09/06 05:47:38;;;;;;;0.43;0.43;;;13.50;99.90;;;;;;5014485;28;20791;-71
2023/09/06 05:50:05;;;;;;;0.40;0.40;;;13.50;99.90;;;;;;5014628;28;20775;-69
2023/09/06 05:52:30;;;;;;;0.50;0.50;;;13.40;99.90;;;;;;5014461;28;20414;-70
2023/09/06 05:54:56;;;;;;;0.63;0.63;;;13.50;99.90;;;;;;5014046;28;20479;-69
2023/09/06 05:57:22;;;;;;;0.50;0.50;;;13.40;99.90;;;;;;5014497;28;20646;-70
2023/09/06 05:59:47;;;;;;;0.40;0.40;;;13.50;99.90;;;;;;5014310;28;20634;-71
2023/09/06 06:02:14;;;;;;;1.00;0.90;;;13.70;99.90;;;;;;5014372;28;20406;-71
2023/09/06 06:04:41;;;;;;;0.63;0.60;;;13.80;99.90;;;;;;5013997;28;20202;-71
2023/09/06 06:07:07;;;;;;;2.27;0.77;;;13.90;99.90;;;;;;5014049;28;20421;-71
2023/09/06 06:09:33;;;;;;;0.73;0.70;;;13.90;99.90;;;;;;5014155;28;20409;-71
2023/09/06 06:11:58;;;;;;;1.63;1.53;;;14.00;99.80;;;;;;5014098;28;20234;-71
2023/09/06 06:14:28;;;;;;;1.27;0.90;;;14.20;99.90;;;;;;5013884;28;20462;-70
2023/09/06 06:16:53;;;;;;;0.90;0.90;;;14.40;99.90;;;;;;5014156;28;20164;-71
2023/09/06 06:19:19;;;;;;;1.73;0.77;;;14.60;99.90;;;;;;5014086;28;20502;-69
2023/09/06 06:21:45;;;;;;;4.10;0.50;;;14.80;99.70;;;;;;5014114;28;20171;-71
2023/09/06 06:24:12;;;;;;;0.47;0.47;;;15.10;99.40;;;;;;5013869;28;20488;-71
2023/09/06 06:26:38;;;;;;;0.70;0.70;;;15.40;99.00;;;;;;5013864;28;20411;-69
2023/09/06 06:29:03;;;;;;;1.13;0.60;;;15.70;98.80;;;;;;5013930;28;20460;-71
2023/09/06 06:31:29;;;;;;;1.13;0.90;;;16.00;98.60;;;;;;5014050;28;20257;-71
2023/09/06 06:33:55;;;;;;;0.60;0.60;;;16.30;98.10;;;;;;5013599;28;20265;-72
2023/09/06 06:36:21;;;;;;;0.97;0.73;;;16.60;97.80;;;;;;5013656;28;20178;-70
2023/09/06 06:38:47;;;;;;;0.90;0.90;;;16.90;97.50;;;;;;5013431;28;20405;-72
2023/09/06 06:41:22;;;;;;;1.47;0.90;;;17.10;97.50;;;;;;5013819;28;20198;-72
2023/09/06 06:43:52;;;;;;;0.60;0.60;;;17.30;97.20;;;;;;5013572;28;20619;-71
2023/09/06 06:46:28;;;;;;;0.80;0.60;;;17.50;97.00;;;;;;5013754;28;20814;-70
2023/09/06 06:48:55;;;;;;;2.20;2.10;;;17.70;97.00;;;;;;5012319;28;20467;-72
2023/09/06 06:51:21;;;;;;;1.53;1.30;;;18.00;97.00;;;;;;5013810;28;20466;-70
2023/09/06 06:53:47;;;;;;;0.83;0.83;;;18.40;96.80;;;;;;5013453;28;20437;-72
2023/09/06 06:56:13;;;;;;;0.60;0.60;;;19.00;96.70;;;;;;5013437;28;20457;-72
2023/09/06 06:58:38;;;;;;;1.47;1.20;;;19.70;95.60;;;;;;5013695;28;20874;-71
2023/09/06 07:01:04;;;;;;;0.80;0.80;;;20.40;95.00;;;;;;5013687;28;20176;-72
2023/09/06 07:03:30;;;;;;;1.37;1.20;;;20.90;94.00;;;;;;5013416;28;20191;-70
2023/09/06 07:05:56;;;;;;;1.30;1.10;;;21.50;93.30;;;;;;5013908;28;20185;-70
2023/09/06 07:08:26;;;;;;;0.93;0.90;;;22.00;92.60;;;;;;5013482;28;20433;-70
2023/09/06 07:10:52;;;;;;;2.43;1.23;;;22.70;91.20;;;;;;5013592;28;20402;-70
2023/09/06 07:13:17;;;;;;;1.77;0.87;;;23.60;90.30;;;;;;5013117;28;20463;-71
2023/09/06 07:15:43;;;;;;;1.00;0.90;;;24.90;86.10;;;;;;5013301;28;20340;-73
2023/09/06 07:18:09;;;;;;;1.10;1.03;;;26.00;81.30;;;;;;5012894;28;20183;-69
2023/09/06 07:20:35;;;;;;;2.40;1.83;;;26.90;76.90;;;;;;5012666;28;20176;-71
2023/09/06 07:23:01;;;;;;;1.00;0.90;;;28.00;74.00;;;;;;5012379;28;20453;-71
2023/09/06 07:25:31;;;;;;;1.23;0.90;;;29.20;70.20;;;;;;5012084;28;20450;-71
2023/09/06 07:27:59;;;;;;;1.07;0.97;;;30.60;64.30;;;;;;5012845;28;20214;-72
2023/09/06 07:30:25;;;;;;;0.60;0.60;;;32.00;58.90;;;;;;5013043;28;20918;-71
2023/09/06 07:32:51;;;;;;;1.63;0.80;;;33.40;55.50;;;;;;5013304;28;20497;-72
2023/09/06 07:35:16;;;;;;;0.97;0.90;;;34.70;52.20;;;;;;5012445;28;20556;-68
2023/09/06 07:37:43;;;;;;;0.83;0.83;;;35.80;49.20;;;;;;5013427;28;20171;-70
2023/09/06 07:40:09;;;;;;;0.70;0.70;;;36.60;47.00;;;;;;5012349;28;20168;-69
2023/09/06 07:42:39;;;;;;;1.83;0.90;;;37.40;44.40;;;;;;5013067;28;20417;-70
2023/09/06 07:45:09;;;;;;;0.93;0.93;;;38.40;41.80;;;;;;5012798;28;20983;-69
2023/09/06 07:47:34;;;;;;;1.10;1.00;;;39.20;38.60;;;;;;5013142;28;20402;-71
2023/09/06 07:50:00;;;;;;;0.67;0.60;;;39.80;38.00;;;;;;5013728;28;20763;-69
2023/09/06 07:52:26;;;;;;;1.20;1.10;;;40.30;37.70;;;;;;5016013;28;20218;-71
2023/09/06 07:54:51;;;;;;;1.20;1.00;;;40.80;37.40;;;;;;5016346;28;20211;-69
2023/09/06 07:57:17;;;;;;;1.97;1.77;;;41.20;36.70;;;;;;5016343;28;20588;-71
2023/09/06 07:59:43;;;;;;;1.00;1.00;;;41.60;36.00;;;;;;5016548;28;20171;-71
2023/09/06 08:02:08;;;;;;;0.60;0.60;;;41.70;35.50;;;;;;5016544;28;20171;-70
2023/09/06 08:04:34;;;;;;;0.80;0.80;;;42.00;35.00;;;;;;5016288;28;20193;-70
2023/09/06 08:07:00;;;;;;;1.53;1.00;;;42.40;34.50;;;;;;5016684;28;20181;-71
2023/09/06 08:09:25;;;;;;;0.73;0.73;;;42.70;33.30;;;;;;5016529;28;20178;-70
2023/09/06 08:11:51;;;;;;;1.03;0.93;;;43.00;33.50;;;;;;5016534;28;20551;-71
2023/09/06 08:14:17;;;;;;;1.57;1.47;;;43.30;33.20;;;;;;5016022;28;20210;-70
2023/09/06 08:16:43;;;;;;;1.40;1.30;;;43.60;32.60;;;;;;5015040;28;20194;-71
2023/09/06 08:19:08;;;;;;;0.90;0.60;;;43.90;31.30;;;;;;5016236;28;20524;-70
2023/09/06 08:21:34;;;;;;;0.90;0.60;;;43.90;32.00;;;;;;5016278;28;20405;-70
2023/09/06 08:24:02;;;;;;;0.80;0.80;;;43.80;31.90;;;;;;5015915;28;20190;-71
2023/09/06 08:26:28;;;;;;;0.87;0.87;;;43.90;32.20;;;;;;5016034;28;20185;-70
2023/09/06 08:28:53;;;;;;;0.87;0.87;;;43.90;31.40;;;;;;5016197;28;20398;-71
2023/09/06 08:31:20;;;;;;;1.43;1.07;;;43.90;31.40;;;;;;5015987;28;20631;-69
2023/09/06 08:33:45;;;;;;;1.73;1.37;;;43.80;31.20;;;;;;5015661;28;20662;-69
2023/09/06 08:36:11;;;;;;;1.30;1.20;;;43.90;31.70;;;;;;5015843;28;20465;-71
2023/09/06 08:38:39;;;;;;;4.00;1.20;;;44.10;32.20;;;;;;5016027;28;20240;-72
2023/09/06 08:41:07;;;;;;;1.43;1.30;;;44.40;32.10;;;;;;5015927;28;20510;-71
2023/09/06 08:43:41;;;;;;;1.20;1.10;;;44.60;31.60;;;;;;5015305;28;20549;-71
2023/09/06 08:46:27;;;;;;;1.20;1.10;;;44.80;31.90;;;;;;5015690;28;20234;-70
2023/09/06 08:48:55;;;;;;;1.67;1.58;;;45.00;31.60;;;;;;5015893;28;20258;-69
2023/09/06 08:51:21;;;;;;;1.50;1.40;;;45.00;31.60;;;;;;5015864;28;20171;-69
2023/09/06 08:53:48;;;;;;;1.57;1.47;;;44.80;30.30;;;;;;5015351;28;20195;-70
2023/09/06 08:56:15;;;;;;;1.30;1.20;;;44.30;31.10;;;;;;5015481;28;20178;-71
2023/09/06 08:58:41;;;;;;;1.20;1.10;;;44.10;30.40;;;;;;5015668;28;20226;-71
2023/09/06 09:01:08;;;;;;;1.40;1.30;;;43.80;31.50;;;;;;5015347;28;20194;-71
2023/09/06 09:03:34;;;;;;;0.70;0.70;;;44.00;31.90;;;;;;5015312;28;20530;-69
2023/09/06 09:06:00;;;;;;;1.80;1.13;;;44.30;29.00;;;;;;5015249;28;20277;-71
2023/09/06 09:08:30;;;;;;;1.13;0.87;;;44.20;30.50;;;;;;5015407;28;20178;-71
2023/09/06 09:11:15;;;;;;;1.37;1.00;;;43.70;30.20;;;;;;5015248;28;20464;-71
2023/09/06 09:13:42;;;;;;;0.97;0.90;;;43.50;29.80;;;;;;5014988;28;20495;-71
2023/09/06 09:16:10;;;;;;;2.00;1.17;;;43.40;30.60;;;;;;5014872;28;20406;-70
2023/09/06 09:18:40;;;;;;;1.10;0.80;;;43.40;29.80;;;;;;5014085;28;20501;-69
2023/09/06 09:21:11;;;;;;;1.33;1.23;;;43.20;30.20;;;;;;5013548;28;20414;-71
2023/09/06 09:23:55;;;;;;;1.40;1.27;;;43.20;29.80;;;;;;5014760;28;20425;-71
2023/09/06 09:26:21;;;;;;;1.37;1.27;;;43.10;30.00;;;;;;5014778;28;20483;-70
2023/09/06 09:28:48;;;;;;;1.30;1.20;;;42.90;30.30;;;;;;5015008;28;20489;-71
2023/09/06 09:31:15;;;;;;;1.10;1.00;;;42.50;31.10;;;;;;5014577;28;20805;-71
2023/09/06 09:33:45;;;;;;;2.30;1.83;;;41.50;32.80;;;;;;5014573;28;20418;-70
2023/09/06 09:36:14;;;;;;;2.00;1.17;;;40.70;33.30;;;;;;5015035;28;20497;-70
2023/09/06 09:38:51;;;;;;;1.70;1.53;;;40.10;34.00;;;;;;5014803;28;20468;-71
2023/09/06 09:41:16;;;;;;;1.90;1.17;;;39.60;34.50;;;;;;5015251;28;20734;-71
2023/09/06 09:43:42;;;;;;;1.40;1.30;;;39.00;35.60;;;;;;5014515;28;20422;-70
2023/09/06 09:46:09;;;;;;;1.50;1.00;;;38.80;36.00;;;;;;5014373;28;20202;-72
2023/09/06 09:48:35;;;;;;;2.20;2.00;;;38.80;36.90;;;;;;5014777;28;20166;-70
2023/09/06 09:51:04;;;;;;;3.37;1.60;;;38.70;36.50;;;;;;5014832;28;20743;-70
2023/09/06 09:53:32;;;;;;;1.30;1.20;;;38.20;37.40;;;;;;5014522;28;20284;-70
2023/09/06 09:56:04;;;;;;;2.50;2.30;;;37.90;37.90;;;;;;5014429;28;20433;-70
2023/09/06 09:58:33;;;;;;;3.50;1.93;;;37.60;38.10;;;;;;5014051;28;20414;-73
2023/09/06 10:01:00;;;;;;;1.60;1.50;;;37.10;39.30;;;;;;5014080;28;20425;-73
2023/09/06 10:03:27;;;;;;;1.87;1.70;;;37.20;39.70;;;;;;5014057;28;20406;-73
2023/09/06 10:05:53;;;;;;;1.90;1.70;;;37.40;39.50;;;;;;5014131;28;20465;-73
2023/09/06 10:08:21;;;;;;;1.80;1.70;;;37.20;38.70;;;;;;5014197;28;20415;-73
2023/09/06 10:10:47;;;;;;;1.60;1.40;;;37.10;40.40;;;;;;5014071;28;20497;-73
2023/09/06 10:13:16;;;;;;;1.90;1.80;;;37.40;39.70;;;;;;5013563;28;20498;-73
2023/09/06 10:15:43;;;;;;;2.43;1.77;;;36.90;39.50;;;;;;5014085;28;20175;-73
2023/09/06 10:18:08;;;;;;;1.63;1.50;;;36.80;40.80;;;;;;5014179;28;20970;-72
2023/09/06 10:20:37;;;;;;;4.80;2.30;;;36.70;40.80;;;;;;5014086;28;20493;-73
2023/09/06 10:23:05;;;;;;;2.40;1.60;;;36.40;42.00;;;;;;5013828;28;20178;-73
2023/09/06 10:25:31;;;;;;;1.40;1.30;;;35.70;42.00;;;;;;5013598;28;20985;-73
2023/09/06 10:28:01;;;;;;;1.43;1.33;;;35.30;42.10;;;;;;5013903;28;20438;-73
2023/09/06 10:30:42;;;;;;;2.83;2.63;;;35.30;43.50;;;;;;5013887;28;20639;-72
2023/09/06 10:33:08;;;;;;;2.00;1.80;;;35.30;42.70;;;;;;5013886;28;20414;-73
2023/09/06 10:35:41;;;;;;;1.70;1.60;;;35.10;42.90;;;;;;5013785;28;20441;-73
2023/09/06 10:38:10;;;;;;;2.67;2.20;;;34.80;44.20;;;;;;5013670;28;20182;-73
2023/09/06 10:40:49;;;;;;;1.93;1.60;;;34.30;44.40;;;;;;5013706;28;20969;-73
2023/09/06 10:43:15;;;;;;;1.60;1.50;;;34.20;44.70;;;;;;5013661;28;20413;-72
2023/09/06 10:45:53;;;;;;;1.70;1.57;;;33.90;46.60;;;;;;5013680;28;20545;-72
2023/09/06 10:48:18;;;;;;;1.93;1.83;;;33.70;45.90;;;;;;5014297;28;20464;-72
2023/09/06 10:51:07;;;;;;;2.03;1.80;;;33.70;44.50;;;;;;5013711;28;20856;-69
2023/09/06 10:53:37;;;;;;;1.50;1.40;;;33.40;45.40;;;;;;5011468;28;20958;-73
2023/09/06 10:56:05;;;;;;;1.50;1.40;;;33.20;47.70;;;;;;5012358;28;20442;-72
2023/09/06 10:58:33;;;;;;;1.93;1.73;;;33.10;45.90;;;;;;5012913;28;20421;-72
2023/09/06 11:01:18;;;;;;;2.67;2.27;;;32.50;46.60;;;;;;5013353;28;20422;-70
2023/09/06 11:03:54;;;;;;;1.83;1.73;;;31.60;49.50;;;;;;5012934;28;20430;-72
2023/09/06 11:06:24;;;;;;;2.10;2.00;;;31.00;49.20;;;;;;5013455;28;20442;-70
2023/09/06 11:08:50;;;;;;;2.80;1.93;;;30.70;52.00;;;;;;5013492;28;20415;-72
2023/09/06 11:11:16;;;;;;;2.07;1.97;;;30.60;51.10;;;;;;5013613;28;20407;-72
2023/09/06 11:13:44;;;;;;;1.97;1.77;;;30.40;52.10;;;;;;5013234;28;20433;-71
2023/09/06 11:16:15;;;;;;;2.00;1.80;;;30.30;51.90;;;;;;5012013;28;20176;-70
2023/09/06 11:18:49;;;;;;;2.80;2.60;;;30.40;51.80;;;;;;5013602;28;20438;-71
2023/09/06 11:21:19;;;;;;;2.80;2.57;;;30.40;51.60;;;;;;5013201;28;20412;-71
2023/09/06 11:23:50;;;;;;;1.97;1.60;;;30.00;52.70;;;;;;5012353;28;20822;-72
2023/09/06 11:26:17;;;;;;;2.00;1.60;;;29.90;54.30;;;;;;5015673;28;20463;-72
2023/09/06 11:28:47;;;;;;;2.90;2.23;;;30.00;56.10;;;;;;5017441;28;20545;-72
2023/09/06 11:31:22;;;;;;;1.93;1.73;;;30.10;53.00;;;;;;5017622;28;20418;-71
2023/09/06 11:33:55;;;;;;;2.13;1.90;;;30.10;53.10;;;;;;5017166;28;20425;-70
2023/09/06 11:36:27;;;;;;;1.30;1.20;;;30.20;53.00;;;;;;5017767;28;20394;-70
2023/09/06 11:38:54;;;;;;;2.13;2.03;;;30.40;53.80;;;;;;5017161;28;20410;-72
2023/09/06 11:41:21;;;;;;;2.70;2.50;;;30.40;53.20;;;;;;5017014;28;20493;-72
2023/09/06 11:43:49;;;;;;;1.60;1.47;;;30.20;52.10;;;;;;5016749;28;20438;-70
2023/09/06 11:46:17;;;;;;;2.03;1.83;;;30.10;54.80;;;;;;5015672;28;20833;-71
2023/09/06 11:48:44;;;;;;;1.63;1.53;;;29.70;54.10;;;;;;5016987;28;20913;-72
2023/09/06 11:51:13;;;;;;;3.33;1.90;;;29.60;54.30;;;;;;5017251;28;20406;-70
2023/09/06 11:53:45;;;;;;;1.87;1.73;;;29.50;55.30;;;;;;5016707;28;20433;-71
2023/09/06 11:56:13;;;;;;;2.23;1.93;;;29.50;54.70;;;;;;5015789;28;20419;-71
2023/09/06 11:58:48;;;;;;;2.70;1.73;;;29.40;55.20;;;;;;5016731;28;20422;-72
2023/09/06 12:01:21;;;;;;;2.23;2.03;;;29.30;54.70;;;;;;5015996;28;20472;-72
2023/09/06 12:03:47;;;;;;;2.67;2.47;;;29.20;54.90;;;;;;5016403;28;20921;-73
2023/09/06 12:06:13;;;;;;;2.67;2.00;;;28.90;56.50;;;;;;5016631;28;20454;-71
2023/09/06 12:08:40;;;;;;;1.93;1.37;;;28.50;56.30;;;;;;5016566;28;20465;-72
2023/09/06 12:11:08;;;;;;;2.80;2.23;;;28.20;56.40;;;;;;5016822;28;20407;-72
2023/09/06 12:13:38;;;;;;;3.20;1.63;;;28.30;56.90;;;;;;5016594;28;20820;-71
2023/09/06 12:16:06;;;;;;;2.23;2.03;;;28.40;58.80;;;;;;5016559;28;20763;-73
2023/09/06 12:18:35;;;;;;;2.13;1.93;;;28.50;57.80;;;;;;5016407;28;20930;-72
2023/09/06 12:21:01;;;;;;;2.27;2.07;;;28.50;56.00;;;;;;5015924;28;20468;-72
2023/09/06 12:23:30;;;;;;;3.00;2.00;;;28.20;57.20;;;;;;5014913;28;20410;-71
2023/09/06 12:25:57;;;;;;;1.87;1.77;;;28.20;58.40;;;;;;5014824;28;20465;-72
2023/09/06 12:28:23;;;;;;;1.60;1.50;;;28.30;57.20;;;;;;5015186;28;20426;-72
2023/09/06 12:30:53;;;;;;;1.97;1.37;;;28.30;57.30;;;;;;5015097;28;20410;-72
2023/09/06 12:33:21;;;;;;;2.73;2.47;;;28.50;58.10;;;;;;5014879;28;20422;-71
2023/09/06 12:35:53;;;;;;;1.53;1.43;;;28.60;57.90;;;;;;5014810;28;20414;-71
2023/09/06 12:38:18;;;;;;;2.00;1.80;;;28.70;57.30;;;;;;5015918;28;20407;-73
2023/09/06 12:40:46;;;;;;;2.00;1.90;;;28.80;57.40;;;;;;5015792;28;20449;-72
2023/09/06 12:43:11;;;;;;;3.13;1.90;;;28.70;56.50;;;;;;5015469;28;20176;-71
2023/09/06 12:45:37;;;;;;;2.30;1.40;;;28.70;57.50;;;;;;5015366;28;20458;-72
2023/09/06 12:48:05;;;;;;;2.73;2.13;;;28.40;58.70;;;;;;5015921;28;20171;-73
2023/09/06 12:50:31;;;;;;;2.60;2.13;;;28.30;57.30;;;;;;5016009;28;20168;-71